Terminal Aerodrome Forecast
Issued by NWS Louisville, KY

Home | Current Version | Previous Version | Text Only | Print | Product List | Glossary On
Versions: 1 2 3 4 5 6 7 8 9 10 11 12 13 14 15 16 17 18
000
FTUS43 KLMK 181700
TAFSDF
TAF
KSDF 181723Z 1818/1924 26007KT P6SM VCSH SCT025 BKN035
     FM190000 22003KT P6SM SCT030
     FM190800 26003KT 5SM BR SCT025
     FM191400 24006KT P6SM SCT035=

USA.gov is the U.S. government's official web portal to all federal, state and local government web resources and services.